Modulus 4 — UBBJ2 — position and weather

sailwx.info

Track history (hours):
 
Tides and Currents Weather Stations Pressure Air Temp Water Temp Dewpoint Dewpoint Depression Visibility Wind Speed Wind Dir Waves Ship Positions

Modulus 4

Last reported at 2017-Dec-17 01:12 UTC. Time now 2017-Dec-17 02:36 UTC.
Position N 53°34' E 005°24'.

Length 90 m; draft 3.8 m.

Type: Cargo ship. MMSI: 273357280.

Date/timePositionNaut miles runAvg speedWind from/ knotsBaromVisibWave heightAir tempDewpointWater temp
2017-Dec-17 01:12N 53°34' E 005°24'2 9.1
2017-Dec-17 01:00N 53°33' E 005°21'5 9.1
2017-Dec-17 00:29N 53°32' E 005°13'4 9.2
2017-Dec-17 00:01N 53°30' E 005°06'5 9.2
2017-Dec-16 23:30N 53°29' E 004°59'5 9.2
2017-Dec-16 23:01N 53°27' E 004°52'5 9.4
2017-Dec-16 22:29N 53°25' E 004°44'137 7.8
2017-Dec-16 04:54N 51°45' E 002°12'4 9.2
2017-Dec-16 04:30N 51°43' E 002°07'5 9.6
2017-Dec-16 03:56N 51°40' E 001°60'410.0
2017-Dec-16 03:31N 51°37' E 001°54'510.3
2017-Dec-16 03:01N 51°34' E 001°47'510.8
2017-Dec-16 02:30N 51°31' E 001°40'510.8
2017-Dec-16 02:00N 51°29' E 001°32'611.9
2017-Dec-16 01:30N 51°28' E 001°23'612.2
2017-Dec-16 01:00N 51°29' E 001°13'32 2.6
2017-Dec-15 12:37N 51°28' E 000°21'0 0.0
2017-Dec-15 12:31N 51°28' E 000°21'0 0.0
2017-Dec-15 12:00N 51°28' E 000°21'0 0.0
2017-Dec-15 11:30N 51°28' E 000°21'0 0.0
2017-Dec-15 11:01N 51°28' E 000°21'0 0.0
2017-Dec-15 10:31N 51°28' E 000°21'0 0.0
2017-Dec-15 10:01N 51°28' E 000°21'0 0.0
2017-Dec-15 09:31N 51°28' E 000°21'0 0.0
2017-Dec-15 09:01N 51°28' E 000°21'0 0.0
2017-Dec-15 08:31N 51°28' E 000°21'0 0.0
2017-Dec-15 08:01N 51°28' E 000°21'0 0.0
2017-Dec-15 07:31N 51°28' E 000°21'0 0.0
2017-Dec-15 07:01N 51°28' E 000°21'0 0.0
2017-Dec-15 06:31N 51°28' E 000°21'0 0.0
2017-Dec-15 06:01N 51°28' E 000°21'0 0.0
2017-Dec-15 05:31N 51°28' E 000°21'0 0.0
2017-Dec-15 05:01N 51°28' E 000°21'0 0.0
2017-Dec-15 04:31N 51°28' E 000°21'0 0.0
2017-Dec-15 04:01N 51°28' E 000°21'0 0.0
2017-Dec-15 02:31N 51°28' E 000°21'0 0.0
2017-Dec-15 01:01N 51°28' E 000°21'0 0.0
2017-Dec-15 00:31N 51°28' E 000°21'0 0.0
2017-Dec-14 18:31N 51°28' E 000°21'0 0.0
2017-Dec-14 18:01N 51°28' E 000°21'0 0.0
2017-Dec-14 17:31N 51°28' E 000°21'0 0.0
2017-Dec-14 17:01N 51°28' E 000°21'0 0.0
2017-Dec-14 16:31N 51°28' E 000°21'0 0.0
2017-Dec-14 16:01N 51°28' E 000°21'0 0.0
2017-Dec-14 15:00N 51°28' E 000°21'0 0.0
2017-Dec-14 14:31N 51°28' E 000°21'0 0.0
2017-Dec-14 14:01N 51°28' E 000°21'0 0.0
2017-Dec-14 13:31N 51°28' E 000°21'0 0.0
2017-Dec-14 13:01N 51°28' E 000°21'0 0.0
2017-Dec-14 12:31N 51°28' E 000°21'0 0.0
2017-Dec-14 12:01N 51°28' E 000°21'0 0.8
2017-Dec-14 11:31N 51°27' E 000°21'0 0.3
2017-Dec-14 11:00N 51°27' E 000°20'2 4.2
2017-Dec-14 10:30N 51°27' E 000°24'3 6.1
2017-Dec-14 10:01N 51°29' E 000°27'3 6.6
2017-Dec-14 09:31N 51°30' E 000°32'4 7.5
2017-Dec-14 09:00N 51°30' E 000°38'4 8.6
2017-Dec-14 08:30N 51°30' E 000°45'510.2
2017-Dec-14 08:01N 51°30' E 000°53'3 5.6
2017-Dec-14 07:31N 51°30' E 000°58'0 0.1
2017-Dec-14 06:33N 51°30' E 000°58'0 0.3
2017-Dec-14 06:26N 51°30' E 000°58'2 4.9
2017-Dec-14 06:00N 51°29' E 000°55'16 7.5
2017-Dec-14 03:54N 51°29' E 001°20'3 6.9
2017-Dec-14 03:30N 51°29' E 001°25'3 6.7
2017-Dec-14 03:00N 51°29' E 001°30'4 7.7
2017-Dec-14 02:30N 51°30' E 001°36'4 8.5
2017-Dec-14 02:00N 51°32' E 001°42'4 7.6
2017-Dec-14 01:31N 51°34' E 001°47'4 7.4
2017-Dec-14 01:00N 51°36' E 001°52'157 7.3
2017-Dec-13 03:27N 53°30' E 004°49'2 5.1
2017-Dec-13 02:58N 53°31' E 004°52'2 4.5
2017-Dec-13 02:30N 53°32' E 004°56'10 6.1
2017-Dec-13 00:54N 53°35' E 005°11'3 7.2
2017-Dec-13 00:30N 53°36' E 005°16'4 7.4
2017-Dec-12 23:59N 53°37' E 005°22'93 9.5
2017-Dec-12 14:14N 54°01' E 007°54'7 9.8
2017-Dec-12 13:30N 54°01' E 008°06'4 8.6
2017-Dec-12 13:00N 54°00' E 008°14'611.1
2017-Dec-12 12:30N 53°60' E 008°23'612.8
2017-Dec-12 12:00N 53°58' E 008°33'713.2
2017-Dec-12 11:30N 53°54' E 008°42'612.8
2017-Dec-12 11:00N 53°50' E 008°51'612.8
2017-Dec-12 10:31N 53°52' E 009°02'5 9.3
2017-Dec-12 10:00N 53°54' E 009°09'0 0.9
2017-Dec-12 09:30N 53°54' E 009°09'4 7.3
2017-Dec-12 09:00N 53°57' E 009°14'4 7.9
2017-Dec-12 08:30N 53°60' E 009°17'3 5.5
2017-Dec-12 07:58N 54°03' E 009°18'1 2.7
2017-Dec-12 07:30N 54°04' E 009°19'5 8.1
2017-Dec-12 06:56N 54°08' E 009°21'4 8.3
2017-Dec-12 06:30N 54°10' E 009°26'4 8.5
2017-Dec-12 06:00N 54°12' E 009°33'4 8.0
2017-Dec-12 05:30N 54°15' E 009°37'4 7.3
2017-Dec-12 05:00N 54°18' E 009°41'4 7.6
2017-Dec-12 04:31N 54°21' E 009°45'29 6.2
2017-Dec-11 23:52N 54°33' E 010°30'3 8.8
2017-Dec-11 23:30N 54°34' E 010°35'4 8.9
2017-Dec-11 23:00N 54°35' E 010°42'4 8.7
2017-Dec-11 22:30N 54°35' E 010°50'4 8.7
2017-Dec-11 22:01N 54°36' E 010°57'5 9.4
2017-Dec-11 21:30N 54°36' E 011°05'4 8.9
2017-Dec-11 21:00N 54°36' E 011°13'5 9.2
2017-Dec-11 20:30N 54°33' E 011°20'5 9.6
2017-Dec-11 20:00N 54°31' E 011°27'5 9.9
2017-Dec-11 19:30N 54°29' E 011°35'1010.1
2017-Dec-11 18:31N 54°27' E 011°51'010.6
2017-Dec-11 18:30N 54°27' E 011°52'510.2
2017-Dec-11 18:00N 54°26' E 012°01'76 9.6
2017-Dec-11 10:06N 55°03' E 013°55'1 8.4
2017-Dec-11 09:59N 55°04' E 013°57'5 9.6
2017-Dec-11 09:26N 55°06' E 014°05'610.0
2017-Dec-11 08:53N 55°10' E 014°11'1010.6
2017-Dec-11 07:56N 55°18' E 014°23'511.2
2017-Dec-11 07:30N 55°22' E 014°28'510.8
2017-Dec-11 07:00N 55°26' E 014°34'510.8
2017-Dec-11 06:31N 55°29' E 014°42'510.8
2017-Dec-11 06:00N 55°31' E 014°50'810.5
2017-Dec-11 05:16N 55°35' E 015°02'410.0
2017-Dec-11 04:52N 55°37' E 015°08'4 9.8
2017-Dec-11 04:27N 55°39' E 015°15'4 9.8
2017-Dec-11 04:01N 55°40' E 015°23'5 9.7
2017-Dec-11 03:30N 55°41' E 015°31'5 9.7
2017-Dec-11 03:01N 55°42' E 015°39'5 9.8
2017-Dec-11 02:31N 55°43' E 015°48'5 9.8
2017-Dec-11 02:01N 55°44' E 015°56'5 9.5
2017-Dec-11 01:31N 55°46' E 016°04'5 9.4
2017-Dec-11 01:00N 55°47' E 016°12'5 9.4
2017-Dec-11 00:30N 55°48' E 016°21'  
Track history (hours):
 
Tides and Currents Weather Stations Pressure Air Temp Water Temp Dewpoint Dewpoint Depression Visibility Wind Speed Wind Dir Waves Ship Positions

Modulus 4

Last reported at 2017-Dec-17 01:12 UTC. Time now 2017-Dec-17 02:36 UTC.
Position N 53°34' E 005°24'.

Length 90 m; draft 3.8 m.

Type: Cargo ship. MMSI: 273357280.

Date/timePositionNaut miles runAvg speedWind from/ knotsBaromVisibWave heightAir tempDewpointWater temp
2017-Dec-17 01:12N 53°34' E 005°24'2 9.1
2017-Dec-17 01:00N 53°33' E 005°21'5 9.1
2017-Dec-17 00:29N 53°32' E 005°13'4 9.2
2017-Dec-17 00:01N 53°30' E 005°06'5 9.2
2017-Dec-16 23:30N 53°29' E 004°59'5 9.2
2017-Dec-16 23:01N 53°27' E 004°52'5 9.4
2017-Dec-16 22:29N 53°25' E 004°44'137 7.8
2017-Dec-16 04:54N 51°45' E 002°12'4 9.2
2017-Dec-16 04:30N 51°43' E 002°07'5 9.6
2017-Dec-16 03:56N 51°40' E 001°60'410.0
2017-Dec-16 03:31N 51°37' E 001°54'510.3
2017-Dec-16 03:01N 51°34' E 001°47'510.8
2017-Dec-16 02:30N 51°31' E 001°40'510.8
2017-Dec-16 02:00N 51°29' E 001°32'611.9
2017-Dec-16 01:30N 51°28' E 001°23'612.2
2017-Dec-16 01:00N 51°29' E 001°13'32 2.6
2017-Dec-15 12:37N 51°28' E 000°21'0 0.0
2017-Dec-15 12:31N 51°28' E 000°21'0 0.0
2017-Dec-15 12:00N 51°28' E 000°21'0 0.0
2017-Dec-15 11:30N 51°28' E 000°21'0 0.0
2017-Dec-15 11:01N 51°28' E 000°21'0 0.0
2017-Dec-15 10:31N 51°28' E 000°21'0 0.0
2017-Dec-15 10:01N 51°28' E 000°21'0 0.0
2017-Dec-15 09:31N 51°28' E 000°21'0 0.0
2017-Dec-15 09:01N 51°28' E 000°21'0 0.0
2017-Dec-15 08:31N 51°28' E 000°21'0 0.0
2017-Dec-15 08:01N 51°28' E 000°21'0 0.0
2017-Dec-15 07:31N 51°28' E 000°21'0 0.0
2017-Dec-15 07:01N 51°28' E 000°21'0 0.0
2017-Dec-15 06:31N 51°28' E 000°21'0 0.0
2017-Dec-15 06:01N 51°28' E 000°21'0 0.0
2017-Dec-15 05:31N 51°28' E 000°21'0 0.0
2017-Dec-15 05:01N 51°28' E 000°21'0 0.0
2017-Dec-15 04:31N 51°28' E 000°21'0 0.0
2017-Dec-15 04:01N 51°28' E 000°21'0 0.0
2017-Dec-15 02:31N 51°28' E 000°21'0 0.0
2017-Dec-15 01:01N 51°28' E 000°21'0 0.0
2017-Dec-15 00:31N 51°28' E 000°21'0 0.0
2017-Dec-14 18:31N 51°28' E 000°21'0 0.0
2017-Dec-14 18:01N 51°28' E 000°21'0 0.0
2017-Dec-14 17:31N 51°28' E 000°21'0 0.0
2017-Dec-14 17:01N 51°28' E 000°21'0 0.0
2017-Dec-14 16:31N 51°28' E 000°21'0 0.0
2017-Dec-14 16:01N 51°28' E 000°21'0 0.0
2017-Dec-14 15:00N 51°28' E 000°21'0 0.0
2017-Dec-14 14:31N 51°28' E 000°21'0 0.0
2017-Dec-14 14:01N 51°28' E 000°21'0 0.0
2017-Dec-14 13:31N 51°28' E 000°21'0 0.0
2017-Dec-14 13:01N 51°28' E 000°21'0 0.0
2017-Dec-14 12:31N 51°28' E 000°21'0 0.0
2017-Dec-14 12:01N 51°28' E 000°21'0 0.8
2017-Dec-14 11:31N 51°27' E 000°21'0 0.3
2017-Dec-14 11:00N 51°27' E 000°20'2 4.2
2017-Dec-14 10:30N 51°27' E 000°24'3 6.1
2017-Dec-14 10:01N 51°29' E 000°27'3 6.6
2017-Dec-14 09:31N 51°30' E 000°32'4 7.5
2017-Dec-14 09:00N 51°30' E 000°38'4 8.6
2017-Dec-14 08:30N 51°30' E 000°45'510.2
2017-Dec-14 08:01N 51°30' E 000°53'3 5.6
2017-Dec-14 07:31N 51°30' E 000°58'0 0.1
2017-Dec-14 06:33N 51°30' E 000°58'0 0.3
2017-Dec-14 06:26N 51°30' E 000°58'2 4.9
2017-Dec-14 06:00N 51°29' E 000°55'16 7.5
2017-Dec-14 03:54N 51°29' E 001°20'3 6.9
2017-Dec-14 03:30N 51°29' E 001°25'3 6.7
2017-Dec-14 03:00N 51°29' E 001°30'4 7.7
2017-Dec-14 02:30N 51°30' E 001°36'4 8.5
2017-Dec-14 02:00N 51°32' E 001°42'4 7.6
2017-Dec-14 01:31N 51°34' E 001°47'4 7.4
2017-Dec-14 01:00N 51°36' E 001°52'157 7.3
2017-Dec-13 03:27N 53°30' E 004°49'2 5.1
2017-Dec-13 02:58N 53°31' E 004°52'2 4.5
2017-Dec-13 02:30N 53°32' E 004°56'10 6.1
2017-Dec-13 00:54N 53°35' E 005°11'3 7.2
2017-Dec-13 00:30N 53°36' E 005°16'4 7.4
2017-Dec-12 23:59N 53°37' E 005°22'93 9.5
2017-Dec-12 14:14N 54°01' E 007°54'7 9.8
2017-Dec-12 13:30N 54°01' E 008°06'4 8.6
2017-Dec-12 13:00N 54°00' E 008°14'611.1
2017-Dec-12 12:30N 53°60' E 008°23'612.8
2017-Dec-12 12:00N 53°58' E 008°33'713.2
2017-Dec-12 11:30N 53°54' E 008°42'612.8
2017-Dec-12 11:00N 53°50' E 008°51'612.8
2017-Dec-12 10:31N 53°52' E 009°02'5 9.3
2017-Dec-12 10:00N 53°54' E 009°09'0 0.9
2017-Dec-12 09:30N 53°54' E 009°09'4 7.3
2017-Dec-12 09:00N 53°57' E 009°14'4 7.9
2017-Dec-12 08:30N 53°60' E 009°17'3 5.5
2017-Dec-12 07:58N 54°03' E 009°18'1 2.7
2017-Dec-12 07:30N 54°04' E 009°19'5 8.1
2017-Dec-12 06:56N 54°08' E 009°21'4 8.3
2017-Dec-12 06:30N 54°10' E 009°26'4 8.5
2017-Dec-12 06:00N 54°12' E 009°33'4 8.0
2017-Dec-12 05:30N 54°15' E 009°37'4 7.3
2017-Dec-12 05:00N 54°18' E 009°41'4 7.6
2017-Dec-12 04:31N 54°21' E 009°45'29 6.2
2017-Dec-11 23:52N 54°33' E 010°30'3 8.8
2017-Dec-11 23:30N 54°34' E 010°35'4 8.9
2017-Dec-11 23:00N 54°35' E 010°42'4 8.7
2017-Dec-11 22:30N 54°35' E 010°50'4 8.7
2017-Dec-11 22:01N 54°36' E 010°57'5 9.4
2017-Dec-11 21:30N 54°36' E 011°05'4 8.9
2017-Dec-11 21:00N 54°36' E 011°13'5 9.2
2017-Dec-11 20:30N 54°33' E 011°20'5 9.6
2017-Dec-11 20:00N 54°31' E 011°27'5 9.9
2017-Dec-11 19:30N 54°29' E 011°35'1010.1
2017-Dec-11 18:31N 54°27' E 011°51'010.6
2017-Dec-11 18:30N 54°27' E 011°52'510.2
2017-Dec-11 18:00N 54°26' E 012°01'76 9.6
2017-Dec-11 10:06N 55°03' E 013°55'1 8.4
2017-Dec-11 09:59N 55°04' E 013°57'5 9.6
2017-Dec-11 09:26N 55°06' E 014°05'610.0
2017-Dec-11 08:53N 55°10' E 014°11'1010.6
2017-Dec-11 07:56N 55°18' E 014°23'511.2
2017-Dec-11 07:30N 55°22' E 014°28'510.8
2017-Dec-11 07:00N 55°26' E 014°34'510.8
2017-Dec-11 06:31N 55°29' E 014°42'510.8
2017-Dec-11 06:00N 55°31' E 014°50'810.5
2017-Dec-11 05:16N 55°35' E 015°02'410.0
2017-Dec-11 04:52N 55°37' E 015°08'4 9.8
2017-Dec-11 04:27N 55°39' E 015°15'4 9.8
2017-Dec-11 04:01N 55°40' E 015°23'5 9.7
2017-Dec-11 03:30N 55°41' E 015°31'5 9.7
2017-Dec-11 03:01N 55°42' E 015°39'5 9.8
2017-Dec-11 02:31N 55°43' E 015°48'5 9.8
2017-Dec-11 02:01N 55°44' E 015°56'5 9.5
2017-Dec-11 01:31N 55°46' E 016°04'5 9.4
2017-Dec-11 01:00N 55°47' E 016°12'5 9.4
2017-Dec-11 00:30N 55°48' E 016°21'  

Dump ship's entire track history